Time;durP1;ratioP1;P1;durP2;ratioP2;P2;SDS_P1;SDS_P2;PMS_P1;PMS_P2;Temp;Humidity;BMP_temperature;BMP_pressure;BME280_temperature;BME280_humidity;BME280_pressure;Samples;Min_cycle;Max_cycle;Signal;HPM_P1;HPM_P2
2022/11/25 07:16:01;;;;;;;79.20;40.75;;;8.00;99.90;;;;;;5092670;28;20542;-81
2022/11/25 07:18:33;;;;;;;83.57;40.88;;;8.00;99.90;;;;;;5067267;28;20237;-82
2022/11/25 07:21:03;;;;;;;70.78;40.85;;;7.80;99.90;;;;;;5045127;28;20393;-83
2022/11/25 07:23:30;;;;;;;67.88;33.05;;;8.00;99.90;;;;;;5045202;28;20186;-83
2022/11/25 07:26:15;;;;;;;68.85;35.65;;;8.20;99.90;;;;;;5065026;28;20208;-84
2022/11/25 07:28:42;;;;;;;75.22;38.85;;;8.10;99.90;;;;;;5027064;28;20225;-84
2022/11/25 07:31:17;;;;;;;81.40;38.92;;;8.00;99.90;;;;;;5044142;28;20520;-81
2022/11/25 07:33:55;;;;;;;75.20;40.70;;;8.10;99.90;;;;;;5039574;28;20212;-82
2022/11/25 07:36:27;;;;;;;77.22;42.10;;;8.10;99.90;;;;;;5038665;28;20209;-85
2022/11/25 07:38:59;;;;;;;84.60;43.50;;;8.20;99.90;;;;;;5051455;28;20200;-82
2022/11/25 07:41:28;;;;;;;88.95;43.08;;;8.30;99.90;;;;;;5041525;28;20420;-84
2022/11/25 07:44:00;;;;;;;95.70;40.22;;;8.40;99.90;;;;;;5033906;28;20289;-83
2022/11/25 07:46:36;;;;;;;81.72;43.67;;;8.30;99.90;;;;;;5031196;28;20197;-86
2022/11/25 07:49:10;;;;;;;83.18;43.78;;;8.40;99.90;;;;;;5037431;28;20224;-81
2022/11/25 07:51:43;;;;;;;82.35;42.33;;;8.50;99.90;;;;;;5060672;28;20188;-82
2022/11/25 07:54:11;;;;;;;99.63;43.42;;;8.50;99.90;;;;;;5058636;28;20262;-84
2022/11/25 07:56:43;;;;;;;72.80;40.67;;;8.20;99.90;;;;;;5040536;28;20193;-82
2022/11/25 07:59:13;;;;;;;91.10;45.42;;;8.30;99.90;;;;;;5042380;28;20220;-82
2022/11/25 08:01:40;;;;;;;86.15;43.53;;;8.10;99.90;;;;;;5043147;28;20269;-80
2022/11/25 08:04:10;;;;;;;83.93;40.15;;;8.20;99.90;;;;;;5042749;28;20204;-82
2022/11/25 08:06:48;;;;;;;85.13;46.58;;;8.20;99.90;;;;;;5053318;28;20803;-82
2022/11/25 08:09:18;;;;;;;78.43;41.97;;;8.40;99.90;;;;;;5042458;28;20209;-84
2022/11/25 08:11:45;;;;;;;82.85;40.95;;;8.10;99.90;;;;;;5043782;28;20217;-82
2022/11/25 08:14:14;;;;;;;86.32;43.25;;;8.00;99.90;;;;;;5039137;28;20229;-83
2022/11/25 08:16:41;;;;;;;110.85;46.45;;;8.00;99.90;;;;;;5045280;28;20201;-82
2022/11/25 08:19:12;;;;;;;78.63;41.55;;;8.10;99.90;;;;;;5049495;28;20270;-81
2022/11/25 08:21:40;;;;;;;100.78;41.15;;;8.20;99.90;;;;;;5052006;28;20233;-80
2022/11/25 08:24:09;;;;;;;99.22;46.00;;;8.00;99.90;;;;;;5044027;28;20212;-81
2022/11/25 08:26:36;;;;;;;84.85;42.63;;;7.90;99.90;;;;;;5028828;28;20758;-81
2022/11/25 08:29:05;;;;;;;81.15;43.65;;;8.00;99.90;;;;;;5042318;28;20251;-83
2022/11/25 08:31:35;;;;;;;82.57;39.75;;;8.10;99.90;;;;;;5026647;28;20214;-83
2022/11/25 08:34:05;;;;;;;94.65;42.72;;;8.00;99.90;;;;;;5027001;28;20212;-82
2022/11/25 08:36:33;;;;;;;77.82;39.08;;;8.20;99.90;;;;;;5015167;28;20264;-82
2022/11/25 08:39:04;;;;;;;66.68;36.90;;;8.10;99.90;;;;;;5027002;28;20216;-84
2022/11/25 08:41:51;;;;;;;97.70;40.83;;;8.40;99.90;;;;;;5009943;28;20235;-83
2022/11/25 08:44:18;;;;;;;64.68;35.58;;;8.90;99.90;;;;;;5015516;28;20221;-82
2022/11/25 08:46:45;;;;;;;71.30;36.70;;;9.40;99.90;;;;;;5031511;28;20583;-83
2022/11/25 08:49:16;;;;;;;65.18;36.33;;;9.90;99.90;;;;;;5025254;28;20209;-81
2022/11/25 08:51:43;;;;;;;68.25;35.15;;;9.90;99.90;;;;;;5027371;28;20201;-83
2022/11/25 08:54:10;;;;;;;62.05;34.88;;;10.10;99.90;;;;;;5026068;28;20229;-84
2022/11/25 08:56:37;;;;;;;55.40;34.28;;;10.50;99.90;;;;;;5023440;28;20214;-82
2022/11/25 08:59:05;;;;;;;55.28;32.88;;;10.60;99.90;;;;;;5027558;28;20303;-82
2022/11/25 09:01:32;;;;;;;58.85;30.33;;;10.40;99.90;;;;;;5038927;28;20201;-81
2022/11/25 09:03:59;;;;;;;55.72;31.83;;;10.50;99.90;;;;;;5028001;28;20201;-82
2022/11/25 09:06:27;;;;;;;37.40;27.55;;;10.40;99.90;;;;;;5029922;28;20201;-82
2022/11/25 09:08:57;;;;;;;47.00;29.75;;;10.20;99.90;;;;;;5022375;28;20218;-82
2022/11/25 09:11:25;;;;;;;40.17;26.52;;;10.50;99.90;;;;;;5040665;28;20272;-83
2022/11/25 09:13:52;;;;;;;46.80;27.80;;;10.30;99.90;;;;;;5029676;28;20423;-82
2022/11/25 09:16:20;;;;;;;46.47;27.40;;;10.20;99.90;;;;;;5023154;28;20240;-83
2022/11/25 09:18:47;;;;;;;43.20;26.63;;;10.40;99.90;;;;;;5025204;28;20217;-81
2022/11/25 09:21:21;;;;;;;43.22;27.05;;;10.70;99.90;;;;;;5008129;28;20198;-81
2022/11/25 09:23:49;;;;;;;42.53;25.02;;;10.60;99.90;;;;;;5021679;28;20212;-82
2022/11/25 09:26:28;;;;;;;37.55;25.55;;;10.40;99.90;;;;;;5033920;28;20271;-81
2022/11/25 09:28:55;;;;;;;49.03;24.42;;;10.50;99.90;;;;;;5014467;28;20194;-81
2022/11/25 09:31:23;;;;;;;49.13;26.45;;;10.70;99.90;;;;;;5041318;28;20204;-82
2022/11/25 09:33:50;;;;;;;40.10;28.55;;;10.70;99.90;;;;;;5025523;28;20430;-81
2022/11/25 09:36:18;;;;;;;40.20;25.00;;;10.40;99.90;;;;;;5016222;28;20233;-82
2022/11/25 09:38:46;;;;;;;47.42;29.88;;;10.20;99.90;;;;;;5019357;28;20201;-81
2022/11/25 09:47:41;;;;;;;41.33;23.65;;;10.50;99.90;;;;;;5016886;28;20202;-82
2022/11/25 09:50:25;;;;;;;44.05;24.80;;;10.70;99.90;;;;;;5017576;28;20198;-83
2022/11/25 09:53:17;;;;;;;51.00;27.25;;;10.70;99.90;;;;;;5018997;28;20425;-82
2022/11/25 09:55:47;;;;;;;35.97;25.05;;;11.10;99.90;;;;;;5021404;28;20288;-82
2022/11/25 09:58:31;;;;;;;38.53;23.65;;;11.20;99.90;;;;;;5025203;28;20209;-81
2022/11/25 10:01:02;;;;;;;34.88;23.40;;;10.90;99.90;;;;;;5019803;28;20194;-82
2022/11/25 10:03:48;;;;;;;48.00;26.67;;;11.10;99.90;;;;;;5024121;28;20202;-83
2022/11/25 10:06:22;;;;;;;36.45;21.77;;;10.60;99.90;;;;;;5009489;28;20242;-83
2022/11/25 10:09:03;;;;;;;28.88;19.13;;;10.60;99.90;;;;;;5013215;28;20217;-82
2022/11/25 10:11:45;;;;;;;31.00;19.98;;;10.70;99.90;;;;;;5026257;28;20206;-83
2022/11/25 10:14:26;;;;;;;31.35;21.20;;;10.50;99.90;;;;;;5026012;28;20558;-84
2022/11/25 10:17:09;;;;;;;28.77;21.67;;;10.50;99.90;;;;;;5022775;28;20213;-83
2022/11/25 10:19:38;;;;;;;25.75;18.80;;;10.40;99.90;;;;;;5017965;28;20204;-80
2022/11/25 10:22:25;;;;;;;33.33;20.60;;;10.40;99.90;;;;;;5008747;28;20202;-82
2022/11/25 10:25:11;;;;;;;27.33;19.13;;;10.50;99.90;;;;;;5025245;28;20207;-81
2022/11/25 10:27:47;;;;;;;27.45;18.88;;;10.70;99.90;;;;;;5021201;28;20218;-82
2022/11/25 10:30:19;;;;;;;33.88;21.40;;;10.90;99.90;;;;;;5023558;28;20209;-82
2022/11/25 10:32:58;;;;;;;39.30;25.50;;;11.20;99.90;;;;;;5022058;28;20237;-81
2022/11/25 10:35:52;;;;;;;32.25;21.90;;;11.10;99.90;;;;;;5036115;28;20210;-87
2022/11/25 10:38:24;;;;;;;38.15;23.70;;;11.00;99.90;;;;;;5026112;28;20202;-83
2022/11/25 10:40:54;;;;;;;30.67;22.63;;;11.00;99.90;;;;;;5035377;28;20204;-79
2022/11/25 10:43:22;;;;;;;27.05;20.48;;;10.70;99.90;;;;;;5026155;28;20433;-80
2022/11/25 10:46:27;;;;;;;30.20;20.00;;;10.40;99.90;;;;;;5019951;28;20204;-83
2022/11/25 10:49:34;;;;;;;32.80;20.50;;;10.30;99.90;;;;;;5021195;28;20231;-80
2022/11/25 10:52:12;;;;;;;34.03;20.42;;;10.20;99.90;;;;;;5029465;28;20198;-81
2022/11/25 10:54:39;;;;;;;32.25;20.10;;;10.40;99.90;;;;;;5034415;28;20216;-83
2022/11/25 10:57:19;;;;;;;38.20;23.55;;;10.50;99.90;;;;;;5033576;28;20252;-82
2022/11/25 10:59:59;;;;;;;24.23;16.40;;;10.50;99.90;;;;;;5024547;28;20228;-81
2022/11/25 11:02:38;;;;;;;25.33;18.88;;;10.50;99.90;;;;;;5022184;28;20552;-83
2022/11/25 11:05:09;;;;;;;27.50;18.38;;;10.50;99.90;;;;;;5033991;28;20270;-81
2022/11/25 11:07:38;;;;;;;24.45;16.08;;;10.90;99.90;;;;;;5028955;28;20280;-82
2022/11/25 11:10:12;;;;;;;23.95;15.38;;;11.30;99.90;;;;;;5022609;28;20225;-81
2022/11/25 11:12:59;;;;;;;27.40;16.30;;;11.20;99.90;;;;;;5029752;28;20198;-83
2022/11/25 11:15:30;;;;;;;19.50;14.70;;;11.40;99.90;;;;;;5021412;28;20508;-82
2022/11/25 11:18:27;;;;;;;27.02;14.27;;;11.50;99.90;;;;;;5021949;28;20231;-80
2022/11/25 11:20:59;;;;;;;23.40;13.68;;;11.80;99.90;;;;;;5017441;28;20409;-81
2022/11/25 11:23:27;;;;;;;21.98;13.82;;;12.00;99.90;;;;;;5044924;28;20213;-82
2022/11/25 11:26:03;;;;;;;21.98;13.90;;;11.80;99.90;;;;;;5030792;28;20212;-82
2022/11/25 11:28:35;;;;;;;24.42;15.77;;;11.80;99.90;;;;;;5017937;28;20248;-81
2022/11/25 11:31:07;;;;;;;31.02;15.27;;;11.80;99.90;;;;;;5022511;28;20657;-81
2022/11/25 11:33:53;;;;;;;24.83;13.38;;;11.90;99.90;;;;;;5040098;28;20216;-82
2022/11/25 11:36:37;;;;;;;19.65;13.90;;;12.10;99.90;;;;;;5013629;28;20229;-83
2022/11/25 11:39:24;;;;;;;14.18;11.45;;;12.10;99.90;;;;;;5025504;28;20517;-81
2022/11/25 11:41:59;;;;;;;14.13;10.15;;;11.90;99.90;;;;;;5021278;28;20327;-85
2022/11/25 11:44:45;;;;;;;22.15;11.25;;;11.80;99.90;;;;;;5020114;28;20202;-83
2022/11/25 11:47:12;;;;;;;18.25;11.23;;;12.00;99.90;;;;;;5026212;28;20227;-81
2022/11/25 11:49:58;;;;;;;17.45;11.25;;;11.80;99.90;;;;;;5019998;28;20209;-84
2022/11/25 11:52:58;;;;;;;16.45;10.27;;;11.50;99.90;;;;;;5027848;28;20210;-81
2022/11/25 11:56:10;;;;;;;14.38;10.70;;;11.40;99.90;;;;;;5013933;28;20297;-82
2022/11/25 11:59:27;;;;;;;20.52;12.38;;;11.50;99.90;;;;;;5013864;28;20207;-81
2022/11/25 12:02:30;;;;;;;16.63;11.75;;;11.80;99.90;;;;;;5026345;28;20373;-81
2022/11/25 12:05:17;;;;;;;10.70;9.52;;;12.00;99.90;;;;;;5027937;28;20205;-82
2022/11/25 12:07:51;;;;;;;21.90;10.93;;;12.20;99.90;;;;;;5024139;28;20196;-83
2022/11/25 12:10:36;;;;;;;12.07;10.45;;;12.10;99.90;;;;;;5024470;28;20322;-83
2022/11/25 12:13:41;;;;;;;15.75;9.85;;;12.00;99.90;;;;;;5036058;28;20524;-81
2022/11/25 12:16:24;;;;;;;12.07;10.88;;;11.80;99.90;;;;;;5022049;28;20225;-82
2022/11/25 12:19:06;;;;;;;12.85;9.80;;;11.90;99.90;;;;;;5011957;28;20666;-83
2022/11/25 12:22:30;;;;;;;13.15;8.90;;;11.80;99.90;;;;;;5022268;28;20236;-83
2022/11/25 12:25:19;;;;;;;22.90;11.73;;;11.90;99.90;;;;;;5044127;28;20730;-84
2022/11/25 12:28:20;;;;;;;12.88;10.93;;;12.00;99.90;;;;;;5043766;28;20236;-81
2022/11/25 12:31:41;;;;;;;13.48;10.40;;;12.20;99.90;;;;;;5013776;28;20247;-80
2022/11/25 12:34:20;;;;;;;16.02;11.82;;;12.00;99.90;;;;;;5039415;28;20551;-83
2022/11/25 12:36:48;;;;;;;16.90;11.38;;;11.70;99.90;;;;;;5034068;28;20239;-82
2022/11/25 12:39:30;;;;;;;20.10;11.57;;;11.80;99.90;;;;;;5038955;28;20228;-82
2022/11/25 12:42:01;;;;;;;27.55;15.77;;;11.70;99.90;;;;;;5020229;28;20201;-83
2022/11/25 12:44:49;;;;;;;26.55;16.92;;;11.60;99.90;;;;;;5015172;28;20220;-81
2022/11/25 12:47:18;;;;;;;25.23;19.58;;;11.30;99.90;;;;;;5033235;28;20262;-82
2022/11/25 12:49:49;;;;;;;24.02;18.23;;;11.40;99.90;;;;;;5024820;28;20214;-82
2022/11/25 12:52:49;;;;;;;29.23;18.67;;;11.70;99.90;;;;;;5013727;28;20340;-81
2022/11/25 12:55:24;;;;;;;24.70;16.20;;;11.60;99.90;;;;;;5025586;28;20281;-82
2022/11/25 12:58:17;;;;;;;21.65;16.65;;;11.60;99.90;;;;;;5018244;28;20208;-81
2022/11/25 13:01:07;;;;;;;25.67;14.68;;;11.80;99.90;;;;;;5034315;28;20213;-82
2022/11/25 13:04:14;;;;;;;22.25;15.68;;;12.10;99.90;;;;;;5032017;28;20209;-82
2022/11/25 13:06:56;;;;;;;21.17;17.48;;;11.70;99.90;;;;;;5030306;28;20464;-82
2022/11/25 13:10:02;;;;;;;20.55;15.35;;;11.50;99.90;;;;;;5024688;28;20209;-84
2022/11/25 13:13:06;;;;;;;25.60;16.40;;;11.60;99.90;;;;;;5022774;28;20427;-83
2022/11/25 13:15:45;;;;;;;21.48;18.23;;;11.70;99.90;;;;;;5016799;28;20495;-82
2022/11/25 13:18:33;;;;;;;27.40;17.23;;;11.60;99.90;;;;;;5018640;28;20224;-82
2022/11/25 13:21:09;;;;;;;18.85;14.23;;;11.70;99.90;;;;;;5019627;28;20662;-82
2022/11/25 13:23:52;;;;;;;22.30;15.95;;;11.60;99.90;;;;;;5021884;28;20256;-83
2022/11/25 13:26:32;;;;;;;25.55;15.40;;;11.50;99.90;;;;;;5022735;28;20213;-80
2022/11/25 13:29:23;;;;;;;25.17;16.38;;;11.70;99.90;;;;;;5023492;28;20503;-81
2022/11/25 13:31:54;;;;;;;21.23;16.30;;;11.70;99.90;;;;;;5026373;28;20210;-83
2022/11/25 13:34:28;;;;;;;20.25;17.05;;;11.50;99.90;;;;;;5015470;28;20233;-83
2022/11/25 13:37:01;;;;;;;24.40;16.10;;;11.30;99.90;;;;;;5017591;28;20579;-81
2022/11/25 13:39:31;;;;;;;26.10;17.10;;;11.30;99.90;;;;;;5035393;28;20279;-83
2022/11/25 13:42:23;;;;;;;22.33;15.77;;;11.50;99.90;;;;;;5018663;28;20206;-82
2022/11/25 13:44:58;;;;;;;26.15;15.98;;;11.40;99.90;;;;;;5013805;28;20209;-81
2022/11/25 13:47:47;;;;;;;23.65;15.93;;;11.50;99.90;;;;;;5030976;28;20281;-82
2022/11/25 13:50:23;;;;;;;25.42;16.08;;;11.20;99.90;;;;;;5036895;28;20248;-81
2022/11/25 13:53:33;;;;;;;28.15;17.42;;;10.90;99.90;;;;;;5023018;28;20228;-79
2022/11/25 13:56:19;;;;;;;26.35;15.90;;;10.70;99.90;;;;;;5017575;28;20214;-81
2022/11/25 13:59:15;;;;;;;29.17;17.75;;;10.70;99.90;;;;;;5015473;28;20241;-83
2022/11/25 14:01:51;;;;;;;21.80;16.30;;;10.90;99.90;;;;;;5020228;28;20211;-83
2022/11/25 14:04:54;;;;;;;25.95;15.50;;;10.80;99.90;;;;;;5027171;28;20219;-84
2022/11/25 14:07:49;;;;;;;27.17;15.95;;;10.70;99.90;;;;;;5011522;28;20206;-84
2022/11/25 14:10:59;;;;;;;24.40;14.82;;;10.70;99.90;;;;;;5017674;28;20206;-82
2022/11/25 14:14:08;;;;;;;18.25;13.25;;;10.80;99.90;;;;;;5029511;28;20272;-83
2022/11/25 14:16:37;;;;;;;18.63;13.55;;;10.70;99.90;;;;;;5022195;28;20264;-82
2022/11/25 14:19:11;;;;;;;20.55;12.23;;;10.70;99.90;;;;;;5023159;28;20234;-82
2022/11/25 14:22:07;;;;;;;16.58;12.23;;;10.70;99.90;;;;;;5020010;28;20216;-81
2022/11/25 14:24:41;;;;;;;23.33;13.10;;;10.80;99.90;;;;;;5021545;28;20209;-83
2022/11/25 14:27:32;;;;;;;20.73;13.10;;;10.60;99.90;;;;;;5013853;28;20300;-83
2022/11/25 14:30:09;;;;;;;17.00;10.57;;;10.60;99.90;;;;;;5016909;28;20205;-83
2022/11/25 14:32:55;;;;;;;21.05;12.00;;;10.30;99.90;;;;;;5013308;28;20206;-82
2022/11/25 14:35:36;;;;;;;19.20;11.65;;;10.40;99.90;;;;;;5017993;28;20197;-82
2022/11/25 14:38:23;;;;;;;19.67;11.52;;;10.40;99.90;;;;;;5016878;28;20210;-82
2022/11/25 14:41:00;;;;;;;16.38;10.23;;;10.50;99.90;;;;;;5015798;28;20701;-83
2022/11/25 14:43:38;;;;;;;16.48;10.35;;;10.60;99.90;;;;;;5014877;28;20225;-88
2022/11/25 14:46:19;;;;;;;16.80;10.45;;;10.60;99.90;;;;;;5029589;28;20216;-86
2022/11/25 14:49:01;;;;;;;19.10;11.73;;;10.60;99.90;;;;;;5037035;28;20197;-86
2022/11/25 14:51:36;;;;;;;20.38;9.75;;;10.60;99.90;;;;;;5025951;28;20406;-84
2022/11/25 14:54:07;;;;;;;17.70;11.05;;;10.70;99.90;;;;;;5025468;28;20211;-82
2022/11/25 14:56:42;;;;;;;21.27;11.50;;;10.70;99.90;;;;;;5019397;28;20213;-81
2022/11/25 14:59:10;;;;;;;16.20;10.40;;;10.80;99.90;;;;;;5024375;28;20298;-83
2022/11/25 15:01:53;;;;;;;12.25;9.57;;;10.70;99.90;;;;;;5015598;28;20201;-83
2022/11/25 15:04:24;;;;;;;25.60;10.90;;;10.50;99.90;;;;;;5019631;28;20232;-83
2022/11/25 15:07:00;;;;;;;18.00;11.45;;;10.40;99.90;;;;;;5011861;28;20228;-83
2022/11/25 15:09:44;;;;;;;17.55;12.60;;;10.50;99.90;;;;;;5030320;28;20410;-82
2022/11/25 15:12:18;;;;;;;19.13;11.57;;;10.50;99.90;;;;;;5026735;28;20304;-81
2022/11/25 15:14:52;;;;;;;15.07;12.68;;;10.50;99.90;;;;;;5028032;28;20220;-81
2022/11/25 15:17:24;;;;;;;14.65;10.27;;;10.60;99.90;;;;;;5024006;28;20232;-83
2022/11/25 15:19:55;;;;;;;14.32;10.45;;;10.70;99.90;;;;;;5014688;28;20517;-81
2022/11/25 15:22:22;;;;;;;18.08;11.00;;;10.50;99.90;;;;;;5033758;28;20509;-82
2022/11/25 15:25:06;;;;;;;13.00;8.60;;;10.40;99.90;;;;;;5029643;28;20197;-81
2022/11/25 15:27:33;;;;;;;15.10;10.80;;;10.40;99.90;;;;;;5023646;28;20201;-80
2022/11/25 15:30:00;;;;;;;16.90;9.50;;;10.50;99.90;;;;;;5034178;28;20284;-80
2022/11/25 15:32:31;;;;;;;18.00;11.40;;;10.50;99.90;;;;;;5012695;28;20206;-84
2022/11/25 15:35:02;;;;;;;17.00;11.30;;;10.50;99.90;;;;;;5016322;28;20217;-82
2022/11/25 15:37:31;;;;;;;15.52;11.00;;;10.50;99.90;;;;;;5023047;28;20225;-80
2022/11/25 15:40:48;;;;;;;14.90;9.50;;;10.50;99.90;;;;;;5021798;28;20205;-80
2022/11/25 15:43:23;;;;;;;22.60;12.05;;;10.30;99.90;;;;;;5017113;28;20213;-81
2022/11/25 15:45:59;;;;;;;14.30;10.88;;;10.50;99.90;;;;;;5000345;28;20229;-81
2022/11/25 15:48:32;;;;;;;19.15;11.73;;;10.30;99.90;;;;;;5020226;28;20206;-84
2022/11/25 15:51:19;;;;;;;15.02;10.77;;;10.10;99.90;;;;;;5014991;28;20198;-82
2022/11/25 15:53:55;;;;;;;16.92;13.02;;;10.10;99.90;;;;;;5023585;28;20327;-86
2022/11/25 15:56:25;;;;;;;16.40;10.68;;;10.10;99.90;;;;;;5016316;28;20279;-86
2022/11/25 15:58:55;;;;;;;17.30;13.68;;;10.00;99.90;;;;;;5014880;28;20282;-84
2022/11/25 16:01:28;;;;;;;16.63;11.50;;;9.90;99.90;;;;;;5012575;28;20213;-83
2022/11/25 16:04:11;;;;;;;16.80;11.50;;;9.70;99.90;;;;;;5011961;28;20272;-82
2022/11/25 16:06:53;;;;;;;18.23;12.20;;;9.80;99.90;;;;;;5025118;28;20210;-83
2022/11/25 16:09:22;;;;;;;21.10;14.20;;;9.80;99.90;;;;;;5015042;28;20202;-83
2022/11/25 16:11:50;;;;;;;18.05;12.40;;;9.80;99.90;;;;;;5019900;28;20722;-81
2022/11/25 16:14:32;;;;;;;20.27;12.68;;;9.80;99.90;;;;;;5030322;28;20225;-83
2022/11/25 16:17:10;;;;;;;20.23;12.52;;;9.80;99.90;;;;;;5020703;28;20606;-86
2022/11/25 16:19:45;;;;;;;21.67;14.65;;;9.60;99.90;;;;;;5033859;28;20240;-83
2022/11/25 16:22:16;;;;;;;22.23;14.00;;;9.80;99.90;;;;;;5024609;28;20387;-82
2022/11/25 16:24:49;;;;;;;21.88;14.57;;;9.50;99.90;;;;;;5022142;28;20206;-83
2022/11/25 16:27:25;;;;;;;23.73;15.52;;;9.20;99.90;;;;;;5033961;28;20214;-82
2022/11/25 16:30:03;;;;;;;22.50;14.05;;;9.30;99.90;;;;;;5039623;28;20397;-84
2022/11/25 16:32:31;;;;;;;25.00;15.80;;;9.10;99.90;;;;;;5026886;28;20239;-81
2022/11/25 16:35:15;;;;;;;21.70;16.35;;;9.40;99.90;;;;;;5023356;28;20668;-82
2022/11/25 16:37:42;;;;;;;29.77;17.42;;;9.40;99.90;;;;;;5020089;28;20225;-82
2022/11/25 16:40:19;;;;;;;22.75;16.95;;;10.10;99.90;;;;;;5026730;28;20201;-82
2022/11/25 16:42:59;;;;;;;26.77;16.95;;;9.80;99.90;;;;;;5028186;28;20260;-89
2022/11/25 16:45:31;;;;;;;22.27;14.70;;;10.40;99.90;;;;;;5027855;28;20195;-86
2022/11/25 16:47:58;;;;;;;27.38;17.55;;;10.00;99.90;;;;;;5019956;28;20406;-82
2022/11/25 16:50:31;;;;;;;21.48;14.07;;;10.40;99.90;;;;;;5020375;28;20260;-83
2022/11/25 16:53:00;;;;;;;29.90;18.15;;;10.10;99.90;;;;;;5017943;28;20202;-83
2022/11/25 16:55:30;;;;;;;25.23;17.42;;;10.10;99.90;;;;;;5028711;28;20241;-87
2022/11/25 16:57:58;;;;;;;33.10;19.48;;;10.10;99.90;;;;;;5020720;28;20229;-86
2022/11/25 17:00:26;;;;;;;21.00;15.45;;;10.40;99.90;;;;;;5016774;28;20277;-82
2022/11/25 17:02:57;;;;;;;27.17;16.25;;;12.00;99.90;;;;;;5011639;28;20206;-83
2022/11/25 17:05:29;;;;;;;22.08;15.48;;;;;;;;;;5012394;28;20274;-84
2022/11/25 17:07:58;;;;;;;22.95;15.25;;;9.80;99.90;;;;;;5018214;28;20256;-81
2022/11/25 17:10:30;;;;;;;23.17;14.35;;;9.90;99.90;;;;;;5021224;28;20198;-82
2022/11/25 17:13:00;;;;;;;26.67;16.25;;;9.80;99.90;;;;;;5024456;28;20256;-85
2022/11/25 17:15:39;;;;;;;27.42;14.95;;;9.90;99.90;;;;;;5010744;28;20210;-83
2022/11/25 17:18:12;;;;;;;29.85;15.75;;;9.80;99.90;;;;;;5020807;28;20255;-84
2022/11/25 17:20:40;;;;;;;22.58;15.50;;;9.80;99.90;;;;;;5010192;28;20201;-83
2022/11/25 17:23:14;;;;;;;20.85;15.02;;;9.90;99.90;;;;;;5017059;28;20285;-82
2022/11/25 17:25:47;;;;;;;28.92;14.07;;;9.80;99.90;;;;;;5017798;28;20201;-83
2022/11/25 17:28:40;;;;;;;20.33;13.15;;;9.90;99.90;;;;;;5022741;28;20198;-83
2022/11/25 17:31:09;;;;;;;21.85;13.32;;;9.80;99.90;;;;;;5015273;28;20268;-83
2022/11/25 17:33:41;;;;;;;23.30;13.63;;;9.90;99.90;;;;;;5019465;28;20203;-82
2022/11/25 17:36:09;;;;;;;23.27;15.55;;;10.00;99.90;;;;;;5019477;28;20247;-81
2022/11/25 17:38:49;;;;;;;26.13;16.00;;;9.80;99.90;;;;;;5016202;28;20232;-81
2022/11/25 17:41:22;;;;;;;34.38;16.05;;;9.70;99.90;;;;;;5028347;28;20207;-84
2022/11/25 17:43:53;;;;;;;24.27;15.02;;;9.60;99.90;;;;;;5024766;28;20220;-84
2022/11/25 17:46:28;;;;;;;23.17;16.80;;;9.40;99.90;;;;;;5009175;28;20265;-83
2022/11/25 17:48:59;;;;;;;27.60;17.00;;;9.30;99.90;;;;;;5012850;28;20212;-81
2022/11/25 17:51:27;;;;;;;25.52;17.02;;;9.10;99.90;;;;;;5025265;28;20194;-84
2022/11/25 17:53:55;;;;;;;26.27;14.57;;;8.90;99.90;;;;;;5031860;28;20213;-82
2022/11/25 17:56:27;;;;;;;27.95;16.30;;;8.60;99.90;;;;;;5023882;28;20276;-81
2022/11/25 17:58:57;;;;;;;21.23;15.05;;;8.50;99.90;;;;;;4994449;28;20210;-81
2022/11/25 18:01:24;;;;;;;30.17;17.85;;;8.30;99.90;;;;;;5049777;28;20214;-82
2022/11/25 18:03:52;;;;;;;20.75;14.43;;;8.20;99.90;;;;;;5018337;28;20520;-82
2022/11/25 18:06:19;;;;;;;24.67;14.57;;;8.10;99.90;;;;;;5021562;28;20260;-81
2022/11/25 18:08:47;;;;;;;21.00;14.00;;;8.20;99.90;;;;;;5018336;28;20218;-81
2022/11/25 18:11:18;;;;;;;25.83;15.60;;;7.90;99.90;;;;;;5030496;28;20322;-83
2022/11/25 18:13:49;;;;;;;32.65;15.27;;;7.70;99.90;;;;;;5020120;28;20201;-83
2022/11/25 18:16:17;;;;;;;36.85;18.25;;;7.60;99.90;;;;;;5007956;28;20210;-83
2022/11/25 18:18:46;;;;;;;26.52;16.05;;;8.00;99.90;;;;;;5017694;28;20245;-83
2022/11/25 18:21:13;;;;;;;27.08;17.35;;;7.50;99.90;;;;;;5018998;28;20206;-83
2022/11/25 18:23:40;;;;;;;24.60;17.55;;;7.40;99.90;;;;;;5023826;28;20562;-83
2022/11/25 18:26:10;;;;;;;31.13;17.05;;;7.30;99.90;;;;;;5022626;28;20442;-85
2022/11/25 18:28:37;;;;;;;22.25;16.25;;;;;;;;;;5015084;28;20419;-85
2022/11/25 18:31:05;;;;;;;25.83;17.58;;;7.10;99.90;;;;;;5031478;28;20225;-86
2022/11/25 18:33:32;;;;;;;24.55;18.10;;;7.10;99.90;;;;;;5023214;28;20268;-83
2022/11/25 18:36:00;;;;;;;23.90;15.95;;;6.90;99.90;;;;;;5032310;28;20247;-83
2022/11/25 18:38:26;;;;;;;20.95;14.38;;;7.00;99.90;;;;;;5026755;28;20217;-83
2022/11/25 18:40:54;;;;;;;25.88;16.90;;;7.60;99.90;;;;;;5028539;28;20205;-82
2022/11/25 18:43:23;;;;;;;18.85;14.55;;;6.80;99.90;;;;;;5021674;28;20221;-84
2022/11/25 18:45:52;;;;;;;30.95;17.98;;;6.80;99.90;;;;;;5006532;28;20609;-82
2022/11/25 18:48:23;;;;;;;21.98;17.35;;;6.80;99.90;;;;;;5028931;28;20209;-82
2022/11/25 18:50:51;;;;;;;26.13;18.35;;;6.80;99.90;;;;;;5008680;28;20553;-83
2022/11/25 18:53:22;;;;;;;21.88;17.30;;;6.80;99.90;;;;;;5031586;28;20232;-84
2022/11/25 18:55:52;;;;;;;26.15;17.40;;;6.60;99.90;;;;;;5034844;28;20221;-83
2022/11/25 18:58:22;;;;;;;28.52;19.60;;;6.60;99.90;;;;;;5030136;28;20234;-83
2022/11/25 19:00:51;;;;;;;25.65;17.83;;;6.60;99.90;;;;;;5012386;28;20182;-81
2022/11/25 19:03:22;;;;;;;24.48;18.00;;;6.50;99.90;;;;;;5008052;28;20212;-81
2022/11/25 19:05:50;;;;;;;41.40;19.88;;;6.50;99.90;;;;;;5026170;28;20285;-82
2022/11/25 19:08:17;;;;;;;34.90;19.30;;;6.40;99.90;;;;;;5021812;28;20273;-83
2022/11/25 19:10:48;;;;;;;25.67;17.48;;;6.40;99.90;;;;;;5011495;28;20214;-83
2022/11/25 19:13:33;;;;;;;26.40;18.33;;;6.40;99.90;;;;;;5026625;28;20205;-82
2022/11/25 19:16:11;;;;;;;31.58;19.10;;;6.30;99.90;;;;;;5021421;28;20393;-81
2022/11/25 19:18:43;;;;;;;27.65;18.30;;;6.30;99.90;;;;;;5008716;28;20233;-83
2022/11/25 19:21:25;;;;;;;26.92;19.23;;;6.30;99.90;;;;;;5061110;28;20197;-83
2022/11/25 19:24:11;;;;;;;27.42;20.08;;;6.20;99.90;;;;;;5012650;28;20267;-84
2022/11/25 19:26:54;;;;;;;24.45;18.23;;;6.20;99.90;;;;;;5023884;28;20201;-82
2022/11/25 19:29:38;;;;;;;24.70;17.52;;;6.10;99.90;;;;;;5013944;28;20218;-80
2022/11/25 19:32:18;;;;;;;30.52;23.40;;;6.00;99.90;;;;;;5005706;28;20216;-79
2022/11/25 19:34:55;;;;;;;31.10;20.85;;;6.10;99.90;;;;;;5019160;28;20201;-79
2022/11/25 19:37:23;;;;;;;32.85;21.58;;;6.10;99.90;;;;;;5026633;28;20548;-78
2022/11/25 19:39:51;;;;;;;30.40;20.60;;;5.90;99.90;;;;;;5017104;28;20236;-80
2022/11/25 19:42:27;;;;;;;31.85;18.75;;;5.90;99.90;;;;;;5024983;28;20244;-81
2022/11/25 19:44:54;;;;;;;27.58;19.13;;;5.80;99.90;;;;;;5014256;28;20215;-79
2022/11/25 19:47:23;;;;;;;27.92;17.73;;;5.80;99.90;;;;;;5015547;28;20681;-80
2022/11/25 19:49:55;;;;;;;28.48;18.13;;;5.70;99.90;;;;;;5015809;28;20669;-79
2022/11/25 19:52:30;;;;;;;31.73;20.25;;;5.70;99.90;;;;;;5018135;28;20240;-79
2022/11/25 19:54:58;;;;;;;30.00;20.23;;;5.70;99.90;;;;;;5018039;28;20212;-81
2022/11/25 19:57:27;;;;;;;30.90;19.73;;;5.50;99.90;;;;;;5022291;28;20241;-78
2022/11/25 19:59:54;;;;;;;32.08;20.58;;;5.50;99.90;;;;;;5020304;28;20243;-79
2022/11/25 20:02:24;;;;;;;33.38;19.77;;;5.60;99.90;;;;;;5015718;28;20206;-80
2022/11/25 20:04:54;;;;;;;28.27;20.77;;;5.60;99.90;;;;;;5000213;28;20281;-79
2022/11/25 20:07:29;;;;;;;37.38;22.55;;;5.80;99.90;;;;;;5014707;28;20213;-80
2022/11/25 20:10:29;;;;;;;32.95;21.92;;;5.70;99.90;;;;;;5043236;28;20239;-81
2022/11/25 20:13:01;;;;;;;28.27;19.80;;;5.60;99.90;;;;;;5011763;28;20213;-83
2022/11/25 20:15:28;;;;;;;30.65;20.38;;;5.60;99.90;;;;;;5020557;28;20325;-82
2022/11/25 20:18:00;;;;;;;32.00;19.58;;;5.60;99.90;;;;;;5017307;28;20271;-81
2022/11/25 20:20:37;;;;;;;31.00;21.20;;;5.50;99.90;;;;;;5039945;28;20265;-82
2022/11/25 20:23:24;;;;;;;34.75;21.27;;;5.40;99.90;;;;;;5017874;28;20320;-82
2022/11/25 20:25:55;;;;;;;35.97;22.02;;;5.30;99.90;;;;;;5024171;28;20221;-81
2022/11/25 20:28:25;;;;;;;31.05;19.60;;;5.30;99.90;;;;;;5040797;28;20208;-82
2022/11/25 20:30:53;;;;;;;28.48;20.52;;;5.30;99.90;;;;;;5025934;28;20405;-81
2022/11/25 20:33:21;;;;;;;33.28;23.80;;;5.30;99.90;;;;;;5021684;28;20389;-81
2022/11/25 20:36:05;;;;;;;32.30;20.88;;;5.50;99.90;;;;;;5017499;28;20208;-80
2022/11/25 20:38:36;;;;;;;32.05;19.90;;;5.20;99.90;;;;;;5024131;28;20303;-81
2022/11/25 20:41:05;;;;;;;34.80;21.33;;;5.20;99.90;;;;;;5030717;28;20200;-81